createdAt,value
2023-02-18T00:01:47.675Z,77.95
2023-02-18T00:04:15.307Z,77.91
2023-02-18T00:06:42.925Z,77.81
2023-02-18T00:09:12.504Z,77.85
2023-02-18T00:11:40.244Z,77.36
2023-02-18T00:14:11.757Z,77.07
2023-02-18T00:16:39.426Z,77.47
2023-02-18T00:19:09.227Z,76.90
2023-02-18T00:21:37.403Z,77.28
2023-02-18T00:24:06.142Z,77.08
2023-02-18T00:26:35.951Z,76.81
2023-02-18T00:29:04.198Z,76.90
2023-02-18T00:31:34.132Z,77.34
2023-02-18T00:34:02.642Z,77.43
2023-02-18T00:36:31.233Z,77.05
2023-02-18T00:39:03.478Z,77.43
2023-02-18T00:41:31.487Z,77.27
2023-02-18T00:44:00.964Z,77.09
2023-02-18T00:46:29.394Z,77.29
2023-02-18T00:48:57.207Z,77.21
2023-02-18T00:51:26.206Z,77.41
2023-02-18T00:53:54.032Z,77.87
2023-02-18T00:56:21.917Z,78.17
2023-02-18T00:58:50.184Z,78.38
2023-02-18T01:01:20.365Z,79.02
2023-02-18T01:03:48.188Z,78.89
2023-02-18T01:06:16.153Z,79.36
2023-02-18T01:08:43.735Z,79.04
2023-02-18T01:11:13.331Z,79.08
2023-02-18T01:13:42.277Z,79.23
2023-02-18T01:16:10.525Z,79.00
2023-02-18T01:18:40.213Z,78.80
2023-02-18T01:21:09.065Z,78.43
2023-02-18T01:23:38.550Z,78.29
2023-02-18T01:26:07.219Z,78.48
2023-02-18T01:28:35.100Z,78.27
2023-02-18T01:31:07.043Z,78.78
2023-02-18T01:33:35.427Z,79.17
2023-02-18T01:36:05.560Z,79.42
2023-02-18T01:38:33.330Z,79.68
2023-02-18T01:41:01.808Z,79.06
2023-02-18T01:43:29.926Z,79.37
2023-02-18T01:46:03.889Z,79.96
2023-02-18T01:48:35.936Z,80.54
2023-02-18T01:51:11.215Z,80.42
2023-02-18T01:53:46.759Z,80.57
2023-02-18T01:56:20.877Z,80.74
2023-02-18T01:58:49.177Z,80.97
2023-02-18T02:01:16.889Z,81.11
2023-02-18T02:03:44.419Z,80.50
2023-02-18T02:06:17.550Z,80.01
2023-02-18T02:08:46.706Z,80.08
2023-02-18T02:11:24.818Z,79.41
2023-02-18T02:14:07.398Z,79.15
2023-02-18T02:16:42.555Z,78.84
2023-02-18T02:19:34.343Z,78.67
2023-02-18T02:22:42.222Z,78.63
2023-02-18T02:25:20.590Z,78.54
2023-02-18T02:28:11.610Z,79.25
2023-02-18T02:31:18.618Z,79.78
2023-02-18T02:34:22.644Z,80.50
2023-02-18T02:36:58.882Z,81.17
2023-02-18T02:39:33.600Z,82.27
2023-02-18T02:42:11.154Z,82.73
2023-02-18T02:44:48.096Z,83.35
2023-02-18T02:47:26.563Z,84.52
2023-02-18T02:50:00.959Z,85.64
2023-02-18T02:52:33.798Z,87.25
2023-02-18T02:55:01.701Z,87.91
2023-02-18T02:57:48.153Z,89.31
2023-02-18T03:00:24.139Z,90.53
2023-02-18T03:03:18.398Z,91.02
2023-02-18T03:06:07.593Z,91.33
2023-02-18T03:08:45.265Z,91.77
2023-02-18T03:11:15.215Z,90.82
2023-02-18T03:13:54.763Z,90.56
2023-02-18T03:16:31.869Z,91.64
2023-02-18T03:19:07.460Z,93.09
2023-02-18T03:21:40.282Z,91.83
2023-02-18T03:24:15.386Z,91.09
2023-02-18T03:26:48.114Z,89.90
2023-02-18T03:29:19.206Z,90.05
2023-02-18T03:31:55.308Z,88.14
2023-02-18T03:34:29.810Z,87.23
2023-02-18T03:36:59.586Z,86.76
2023-02-18T03:39:30.442Z,85.30
2023-02-18T03:41:58.254Z,84.46
2023-02-18T03:44:27.401Z,84.04
2023-02-18T03:46:55.048Z,83.19
2023-02-18T03:49:22.935Z,82.87
2023-02-18T03:51:50.555Z,82.83
2023-02-18T03:54:18.188Z,82.84
2023-02-18T03:56:47.072Z,82.68
2023-02-18T03:59:14.738Z,81.47
2023-02-18T04:01:42.442Z,81.64
2023-02-18T04:04:10.183Z,80.89
2023-02-18T04:06:37.798Z,81.55
2023-02-18T04:09:08.824Z,80.96
2023-02-18T04:11:37.934Z,81.39
2023-02-18T04:14:07.481Z,81.30
2023-02-18T04:16:35.215Z,80.67
2023-02-18T04:19:02.788Z,81.10
2023-02-18T04:21:30.384Z,80.64
2023-02-18T04:23:58.021Z,81.02
2023-02-18T04:26:25.651Z,81.19
2023-02-18T04:28:53.295Z,81.15
2023-02-18T04:31:22.621Z,81.60
2023-02-18T04:33:50.249Z,81.59
2023-02-18T04:36:17.831Z,81.70
2023-02-18T04:38:46.076Z,82.36
2023-02-18T04:41:13.739Z,81.92
2023-02-18T04:43:41.341Z,81.68
2023-02-18T04:46:09.191Z,81.68
2023-02-18T04:48:38.337Z,82.08
2023-02-18T04:51:06.281Z,82.42
2023-02-18T04:53:34.480Z,82.60
2023-02-18T04:56:02.115Z,82.96
2023-02-18T04:58:29.648Z,82.95
2023-02-18T05:01:00.146Z,83.08
2023-02-18T05:03:27.832Z,84.08
2023-02-18T05:05:56.904Z,83.90
2023-02-18T05:08:24.709Z,84.40
2023-02-18T05:10:52.295Z,83.81
2023-02-18T05:13:20.162Z,84.26
2023-02-18T05:15:47.741Z,83.91
2023-02-18T05:18:15.451Z,84.40
2023-02-18T05:20:43.089Z,84.19
2023-02-18T05:23:11.998Z,84.05
2023-02-18T05:25:39.580Z,84.06
2023-02-18T05:28:07.249Z,84.27
2023-02-18T05:30:34.905Z,84.60
2023-02-18T05:33:02.520Z,84.23
2023-02-18T05:35:30.086Z,84.35
2023-02-18T05:37:57.622Z,83.93
2023-02-18T05:40:26.613Z,83.43
2023-02-18T05:42:54.200Z,83.51
2023-02-18T05:45:21.782Z,83.40
2023-02-18T05:47:49.425Z,83.47
2023-02-18T05:50:17.117Z,83.24
2023-02-18T05:52:44.717Z,83.08
2023-02-18T05:55:12.356Z,83.09
2023-02-18T05:57:41.504Z,82.54
2023-02-18T06:00:10.262Z,82.88
2023-02-18T06:02:38.021Z,82.61
2023-02-18T06:05:06.769Z,82.50
2023-02-18T06:07:34.541Z,82.04
2023-02-18T06:10:02.166Z,82.04
2023-02-18T06:12:29.716Z,82.23
2023-02-18T06:14:58.617Z,81.83
2023-02-18T06:17:26.148Z,81.71
2023-02-18T06:19:53.717Z,81.83
2023-02-18T06:22:22.182Z,81.71
2023-02-18T06:24:49.853Z,81.59
2023-02-18T06:27:17.449Z,81.38
2023-02-18T06:29:45.224Z,81.14
2023-02-18T06:32:14.182Z,80.77
2023-02-18T06:34:41.778Z,80.23
2023-02-18T06:37:09.437Z,79.81
2023-02-18T06:39:37.165Z,79.94
2023-02-18T06:42:05.024Z,80.26
2023-02-18T06:44:32.612Z,80.10
2023-02-18T06:47:00.193Z,80.02
2023-02-18T06:49:30.287Z,79.51
2023-02-18T06:51:57.965Z,79.46
2023-02-18T06:54:26.034Z,79.57
2023-02-18T06:56:53.780Z,79.38
2023-02-18T06:59:21.372Z,79.44
2023-02-18T07:01:48.922Z,78.20
2023-02-18T07:04:16.597Z,77.91
2023-02-18T07:06:45.528Z,77.16
2023-02-18T07:09:13.092Z,76.25
2023-02-18T07:11:40.764Z,76.41
2023-02-18T07:14:08.529Z,75.64
2023-02-18T07:16:36.206Z,74.54
2023-02-18T07:19:03.902Z,74.96
2023-02-18T07:21:31.578Z,74.47
2023-02-18T07:24:00.658Z,74.20
2023-02-18T07:26:28.311Z,73.58
2023-02-18T07:28:56.023Z,73.88
2023-02-18T07:31:23.868Z,73.69
2023-02-18T07:33:51.467Z,73.26
2023-02-18T07:36:19.093Z,73.40
2023-02-18T07:38:46.743Z,73.40
2023-02-18T07:41:20.082Z,73.05
2023-02-18T07:43:47.553Z,72.43
2023-02-18T07:46:15.255Z,71.96
2023-02-18T07:48:42.997Z,71.93
2023-02-18T07:51:12.572Z,72.20
2023-02-18T07:53:41.584Z,72.09
2023-02-18T07:56:09.620Z,71.86
2023-02-18T07:58:39.665Z,71.86
2023-02-18T08:01:09.805Z,71.98
2023-02-18T08:03:38.027Z,71.44
2023-02-18T08:06:06.956Z,71.65
2023-02-18T08:08:37.086Z,71.75
2023-02-18T08:11:18.396Z,71.92
2023-02-18T08:13:48.576Z,71.53
2023-02-18T08:16:16.501Z,71.34
2023-02-18T08:18:44.409Z,71.48
2023-02-18T08:21:12.246Z,71.35
2023-02-18T08:23:39.941Z,71.20
2023-02-18T08:26:08.189Z,70.89
2023-02-18T08:28:43.073Z,70.73
2023-02-18T08:31:19.119Z,71.19
2023-02-18T08:33:46.729Z,71.59
2023-02-18T08:36:14.499Z,71.80
2023-02-18T08:38:42.080Z,72.23
2023-02-18T08:41:10.948Z,71.72
2023-02-18T08:43:38.955Z,72.00
2023-02-18T08:46:07.092Z,71.64
2023-02-18T08:48:36.140Z,71.22
2023-02-18T08:51:12.955Z,70.68
2023-02-18T08:53:42.035Z,70.73
2023-02-18T08:56:10.852Z,69.97
2023-02-18T08:58:38.896Z,70.08
2023-02-18T09:01:08.821Z,69.67
2023-02-18T09:03:38.071Z,70.14
2023-02-18T09:06:06.577Z,70.10
2023-02-18T09:08:34.282Z,70.45
2023-02-18T09:11:04.421Z,70.14
2023-02-18T09:13:32.656Z,70.24
2023-02-18T09:16:03.444Z,70.55
2023-02-18T09:18:31.347Z,72.05
2023-02-18T09:21:01.712Z,72.19
2023-02-18T09:23:31.813Z,71.82
2023-02-18T09:25:59.743Z,72.28
2023-02-18T09:28:27.712Z,72.07
2023-02-18T09:30:55.354Z,71.32
2023-02-18T09:33:23.468Z,71.00
2023-02-18T09:35:51.268Z,71.13
2023-02-18T09:38:20.157Z,71.16
2023-02-18T09:40:52.746Z,70.83
2023-02-18T09:43:30.072Z,70.80
2023-02-18T09:45:59.214Z,71.23
2023-02-18T09:48:29.421Z,71.29
2023-02-18T09:50:57.368Z,71.84
2023-02-18T09:53:27.021Z,71.93
2023-02-18T09:55:57.214Z,72.03
2023-02-18T09:58:27.573Z,71.40
2023-02-18T10:01:03.341Z,71.66
2023-02-18T10:03:31.569Z,71.79
2023-02-18T10:06:01.450Z,71.51
2023-02-18T10:08:34.210Z,71.31
2023-02-18T10:11:01.979Z,71.17
2023-02-18T10:13:32.126Z,71.71
2023-02-18T10:16:00.174Z,71.93
2023-02-18T10:18:31.329Z,71.59
2023-02-18T10:21:06.178Z,71.08
2023-02-18T10:23:39.049Z,71.52
2023-02-18T10:26:11.226Z,72.08
2023-02-18T10:28:39.850Z,71.96
2023-02-18T10:31:11.351Z,72.36
2023-02-18T10:33:47.221Z,72.90
2023-02-18T10:36:25.694Z,72.72
2023-02-18T10:39:16.381Z,72.63
2023-02-18T10:41:52.490Z,72.51
2023-02-18T10:44:27.536Z,72.00
2023-02-18T10:47:03.349Z,72.57
2023-02-18T10:49:49.820Z,72.92
2023-02-18T10:52:19.286Z,73.04
2023-02-18T10:54:54.032Z,72.91
2023-02-18T10:57:24.548Z,72.96
2023-02-18T11:00:01.342Z,72.47
2023-02-18T11:02:32.545Z,72.41
2023-02-18T11:05:06.501Z,72.11
2023-02-18T11:07:36.388Z,72.77
2023-02-18T11:10:16.956Z,72.74
2023-02-18T11:12:47.381Z,72.86
2023-02-18T11:15:21.612Z,72.65
2023-02-18T11:17:51.800Z,71.80
2023-02-18T11:20:29.620Z,71.36
2023-02-18T11:23:17.990Z,71.25
2023-02-18T11:25:58.063Z,70.84
2023-02-18T11:28:32.437Z,70.42
2023-02-18T11:31:03.483Z,70.19
2023-02-18T11:33:35.547Z,70.13
2023-02-18T11:36:15.167Z,70.45
2023-02-18T11:38:47.672Z,69.90
2023-02-18T11:41:19.902Z,69.87
2023-02-18T11:43:50.790Z,69.20
2023-02-18T11:46:20.517Z,68.93
2023-02-18T11:48:49.187Z,68.56
2023-02-18T11:51:19.063Z,68.74
2023-02-18T11:54:03.470Z,69.10
2023-02-18T11:56:35.345Z,69.34
2023-02-18T11:59:05.205Z,69.14
2023-02-18T12:01:44.642Z,68.98
2023-02-18T12:04:15.197Z,68.45
2023-02-18T12:06:53.329Z,68.22
2023-02-18T12:09:27.703Z,68.52
2023-02-18T12:12:00.254Z,68.33
2023-02-18T12:14:28.435Z,68.78
2023-02-18T12:17:27.555Z,68.17
2023-02-18T12:20:18.807Z,67.95
2023-02-18T12:22:52.576Z,68.22
2023-02-18T12:25:30.663Z,68.04
2023-02-18T12:28:13.909Z,67.78
2023-02-18T12:31:08.702Z,67.60
2023-02-18T12:33:46.288Z,67.85
2023-02-18T12:36:21.555Z,68.64
2023-02-18T12:39:02.862Z,68.81
2023-02-18T12:41:42.557Z,69.98
2023-02-18T12:44:27.512Z,70.91
2023-02-18T12:47:16.814Z,70.41
2023-02-18T12:49:59.553Z,70.16
2023-02-18T12:52:42.968Z,70.96
2023-02-18T12:55:28.338Z,71.44
2023-02-18T12:58:06.736Z,70.19
2023-02-18T13:00:53.764Z,69.01
2023-02-18T13:03:53.946Z,69.11
2023-02-18T13:06:48.973Z,69.14
2023-02-18T13:09:27.528Z,69.21
2023-02-18T13:12:08.074Z,69.32
2023-02-18T13:14:44.579Z,70.10
2023-02-18T13:17:17.218Z,69.33
2023-02-18T13:19:50.625Z,68.49
2023-02-18T13:22:20.603Z,67.91
2023-02-18T13:24:50.447Z,67.61
2023-02-18T13:27:25.408Z,67.27
2023-02-18T13:30:17.479Z,67.12
2023-02-18T13:32:54.927Z,66.32
2023-02-18T13:35:29.616Z,64.91
2023-02-18T13:38:13.574Z,65.24
2023-02-18T13:40:41.754Z,64.02
2023-02-18T13:43:30.299Z,64.16
2023-02-18T13:46:11.750Z,61.87
2023-02-18T13:48:45.929Z,60.77
2023-02-18T13:51:16.443Z,59.65
2023-02-18T13:53:50.462Z,57.99
2023-02-18T13:56:28.407Z,56.11
2023-02-18T13:59:02.296Z,55.91
2023-02-18T14:01:41.293Z,55.34
2023-02-18T14:04:49.192Z,55.11
2023-02-18T14:07:47.794Z,52.91
2023-02-18T14:10:32.678Z,51.80
2023-02-18T14:13:24.539Z,50.44
2023-02-18T14:15:56.534Z,52.23
2023-02-18T14:18:35.410Z,51.53
2023-02-18T14:21:23.347Z,51.13
2023-02-18T14:24:06.198Z,52.00
2023-02-18T14:26:37.208Z,52.77
2023-02-18T14:29:19.469Z,53.96
2023-02-18T14:31:54.441Z,53.87
2023-02-18T14:34:48.080Z,52.88
2023-02-18T14:37:52.967Z,54.40
2023-02-18T14:40:57.379Z,54.95
2023-02-18T14:43:35.157Z,54.76
2023-02-18T14:46:15.181Z,55.15
2023-02-18T14:48:59.978Z,55.56
2023-02-18T14:51:31.526Z,55.82
2023-02-18T14:54:05.143Z,55.46
2023-02-18T14:56:39.197Z,55.72
2023-02-18T14:59:07.537Z,56.43
2023-02-18T15:01:36.547Z,56.83
2023-02-18T15:04:05.242Z,57.06
2023-02-18T15:06:34.893Z,57.73
2023-02-18T15:09:14.800Z,58.36
2023-02-18T15:11:47.831Z,58.42
2023-02-18T15:14:19.456Z,58.55
2023-02-18T15:16:49.273Z,59.45
2023-02-18T15:19:19.978Z,59.81
2023-02-18T15:21:50.402Z,60.30
2023-02-18T15:24:26.336Z,59.96
2023-02-18T15:26:56.622Z,60.23
2023-02-18T15:29:26.196Z,60.08
2023-02-18T15:31:57.571Z,60.59
2023-02-18T15:34:34.535Z,60.70
2023-02-18T15:37:04.188Z,60.32
2023-02-18T15:39:33.585Z,60.87
2023-02-18T15:42:04.506Z,61.16
2023-02-18T15:44:35.272Z,61.27
2023-02-18T15:47:08.128Z,61.28
2023-02-18T15:49:37.539Z,61.77
2023-02-18T15:52:06.669Z,61.92
2023-02-18T15:54:40.423Z,62.15
2023-02-18T15:57:13.683Z,62.16
2023-02-18T15:59:46.515Z,62.99
2023-02-18T16:02:20.183Z,62.52
2023-02-18T16:04:52.025Z,62.94
2023-02-18T16:07:24.491Z,63.27
2023-02-18T16:10:08.509Z,63.38
2023-02-18T16:12:40.323Z,63.47
2023-02-18T16:15:16.807Z,64.04
2023-02-18T16:17:45.970Z,64.19
2023-02-18T16:20:24.493Z,64.48
2023-02-18T16:22:54.418Z,64.81
2023-02-18T16:25:26.952Z,64.93
2023-02-18T16:28:04.204Z,64.93
2023-02-18T16:30:33.804Z,65.35
2023-02-18T16:33:01.548Z,65.34
2023-02-18T16:35:47.503Z,65.93
2023-02-18T16:38:18.316Z,65.91
2023-02-18T16:40:47.526Z,65.93
2023-02-18T16:43:16.418Z,66.12
2023-02-18T16:45:48.439Z,66.35
2023-02-18T16:48:20.608Z,66.32
2023-02-18T16:50:50.463Z,66.92
2023-02-18T16:53:18.038Z,67.05
2023-02-18T16:55:47.479Z,67.89
2023-02-18T16:58:15.026Z,67.83
2023-02-18T17:00:44.055Z,68.11
2023-02-18T17:03:13.499Z,68.31
2023-02-18T17:05:41.424Z,68.64
2023-02-18T17:08:17.058Z,69.04
2023-02-18T17:10:44.638Z,69.28
2023-02-18T17:13:16.719Z,69.68
2023-02-18T17:15:47.793Z,69.97
2023-02-18T17:18:15.442Z,69.95
2023-02-18T17:20:43.332Z,70.47
2023-02-18T17:23:14.849Z,70.69
2023-02-18T17:25:42.922Z,70.91
2023-02-18T17:28:10.560Z,71.89
2023-02-18T17:30:41.463Z,71.65
2023-02-18T17:33:12.848Z,71.50
2023-02-18T17:35:40.392Z,72.49
2023-02-18T17:38:11.339Z,72.35
2023-02-18T17:40:38.910Z,72.71
2023-02-18T17:43:07.076Z,72.43
2023-02-18T17:45:37.451Z,73.30
2023-02-18T17:48:06.745Z,73.20
2023-02-18T17:50:34.254Z,72.94
2023-02-18T17:53:01.933Z,73.83
2023-02-18T17:55:31.814Z,73.54
2023-02-18T17:58:00.149Z,73.29
2023-02-18T18:00:30.244Z,74.27
2023-02-18T18:02:58.227Z,74.14
2023-02-18T18:05:29.296Z,74.23
2023-02-18T18:07:57.092Z,73.54
2023-02-18T18:10:30.467Z,74.07
2023-02-18T18:12:58.345Z,74.05
2023-02-18T18:15:29.304Z,74.35
2023-02-18T18:17:58.155Z,74.52
2023-02-18T18:20:28.582Z,74.24
2023-02-18T18:22:59.305Z,74.33
2023-02-18T18:25:28.564Z,74.53
2023-02-18T18:27:56.430Z,74.30
2023-02-18T18:30:25.731Z,74.13
2023-02-18T18:32:54.125Z,74.98
2023-02-18T18:35:26.221Z,74.66
2023-02-18T18:37:55.706Z,74.67
2023-02-18T18:40:26.473Z,74.65
2023-02-18T18:42:56.418Z,74.89
2023-02-18T18:45:26.284Z,74.49
2023-02-18T18:47:54.337Z,74.64
2023-02-18T18:50:23.699Z,75.06
2023-02-18T18:52:52.488Z,75.01
2023-02-18T18:55:30.264Z,74.40
2023-02-18T18:57:58.604Z,74.66
2023-02-18T19:00:29.115Z,74.38
2023-02-18T19:02:56.844Z,74.36
2023-02-18T19:05:28.093Z,74.95
2023-02-18T19:07:56.339Z,74.92
2023-02-18T19:10:28.242Z,75.73
2023-02-18T19:12:56.441Z,75.80
2023-02-18T19:15:24.709Z,76.15
2023-02-18T19:17:54.614Z,75.86
2023-02-18T19:20:24.235Z,76.52
2023-02-18T19:22:52.239Z,76.61
2023-02-18T19:25:21.454Z,76.30
2023-02-18T19:27:51.360Z,77.44
2023-02-18T19:30:22.847Z,77.42
2023-02-18T19:32:51.339Z,77.22
2023-02-18T19:35:19.744Z,76.87
2023-02-18T19:37:47.872Z,77.15
2023-02-18T19:40:18.096Z,77.89
2023-02-18T19:42:45.617Z,78.12
2023-02-18T19:45:15.688Z,78.09
2023-02-18T19:47:43.410Z,78.46
2023-02-18T19:50:14.148Z,78.75
2023-02-18T19:52:41.813Z,79.02
2023-02-18T19:55:10.149Z,80.30
2023-02-18T19:57:37.856Z,80.03
2023-02-18T20:00:08.889Z,80.48
2023-02-18T20:02:44.030Z,81.27
2023-02-18T20:05:13.794Z,81.46
2023-02-18T20:07:56.409Z,81.30
2023-02-18T20:10:25.245Z,81.09
2023-02-18T20:12:54.515Z,81.03
2023-02-18T20:15:23.020Z,81.07
2023-02-18T20:17:51.987Z,82.25
2023-02-18T20:20:20.495Z,82.00
2023-02-18T20:22:48.297Z,81.99
2023-02-18T20:25:15.939Z,82.16
2023-02-18T20:27:59.480Z,82.95
2023-02-18T20:30:27.869Z,82.89
2023-02-18T20:32:56.807Z,84.46
2023-02-18T20:35:24.462Z,84.85
2023-02-18T20:37:52.027Z,84.16
2023-02-18T20:40:19.905Z,84.86
2023-02-18T20:42:47.569Z,85.00
2023-02-18T20:45:15.219Z,85.10
2023-02-18T20:47:42.854Z,85.73
2023-02-18T20:50:12.023Z,85.76
2023-02-18T20:52:40.446Z,85.17
2023-02-18T20:55:08.188Z,85.99
2023-02-18T20:57:35.935Z,85.94
2023-02-18T21:00:05.964Z,86.46
2023-02-18T21:02:33.604Z,86.20
2023-02-18T21:05:01.232Z,87.24
2023-02-18T21:07:30.167Z,86.85
2023-02-18T21:09:57.792Z,87.48
2023-02-18T21:12:25.433Z,86.61
2023-02-18T21:14:53.043Z,86.92
2023-02-18T21:17:22.031Z,86.77
2023-02-18T21:19:49.698Z,86.31
2023-02-18T21:22:17.292Z,86.89
2023-02-18T21:24:46.183Z,87.12
2023-02-18T21:27:13.794Z,86.53
2023-02-18T21:29:41.445Z,87.51
2023-02-18T21:32:09.204Z,87.44
2023-02-18T21:34:36.987Z,86.96
2023-02-18T21:37:04.618Z,87.23
2023-02-18T21:39:32.194Z,86.27
2023-02-18T21:42:03.989Z,86.81
2023-02-18T21:44:41.744Z,86.98
2023-02-18T21:47:10.184Z,86.36
2023-02-18T21:49:37.800Z,85.88
2023-02-18T21:52:09.251Z,86.01
2023-02-18T21:54:39.706Z,86.34
2023-02-18T21:57:11.465Z,85.93
2023-02-18T21:59:39.486Z,86.12
2023-02-18T22:02:09.871Z,85.93
2023-02-18T22:04:37.898Z,86.34
2023-02-18T22:07:05.476Z,86.32
2023-02-18T22:09:33.067Z,86.21
2023-02-18T22:12:00.828Z,86.61
2023-02-18T22:14:29.974Z,86.47
2023-02-18T22:16:57.696Z,86.39
2023-02-18T22:19:25.585Z,86.19
2023-02-18T22:21:53.198Z,86.30
2023-02-18T22:24:20.821Z,86.79
2023-02-18T22:26:49.021Z,86.66
2023-02-18T22:29:18.529Z,86.89
2023-02-18T22:31:49.382Z,86.70
2023-02-18T22:34:17.126Z,86.25
2023-02-18T22:36:44.724Z,87.21
2023-02-18T22:39:12.570Z,87.71
2023-02-18T22:41:40.240Z,88.06
2023-02-18T22:44:10.135Z,88.29
2023-02-18T22:46:38.528Z,87.37
2023-02-18T22:49:08.099Z,87.98
2023-02-18T22:51:38.367Z,87.32
2023-02-18T22:54:07.301Z,87.17
2023-02-18T22:56:34.938Z,87.63
2023-02-18T22:59:02.927Z,87.13
2023-02-18T23:01:33.113Z,87.70
2023-02-18T23:04:05.897Z,87.20
2023-02-18T23:06:35.265Z,86.83
2023-02-18T23:09:03.228Z,87.48
2023-02-18T23:11:31.012Z,87.02
2023-02-18T23:14:16.430Z,87.93
2023-02-18T23:17:01.716Z,87.93
2023-02-18T23:19:31.755Z,88.04
2023-02-18T23:22:00.820Z,88.85
2023-02-18T23:28:47.539Z,88.63
2023-02-18T23:31:16.937Z,88.58
2023-02-18T23:33:45.214Z,88.43
2023-02-18T23:36:15.271Z,88.07
2023-02-18T23:38:47.682Z,88.47
2023-02-18T23:41:15.258Z,88.50
2023-02-18T23:43:42.876Z,88.78
2023-02-18T23:46:10.470Z,89.54
2023-02-18T23:48:38.562Z,91.06
2023-02-18T23:51:09.154Z,92.31
2023-02-18T23:53:38.075Z,92.57
2023-02-18T23:56:11.675Z,92.76
2023-02-18T23:58:40.106Z,93.24
